createdAt,value
2018-07-03T00:00:48.628Z,74.40
2018-07-03T00:01:48.624Z,74.11
2018-07-03T00:02:48.595Z,73.05
2018-07-03T00:03:48.579Z,73.24
2018-07-03T00:04:48.563Z,73.91
2018-07-03T00:05:48.548Z,73.91
2018-07-03T00:06:48.540Z,73.24
2018-07-03T00:07:48.516Z,73.97
2018-07-03T00:08:48.497Z,74.55
2018-07-03T00:09:48.481Z,75.60
2018-07-03T00:10:48.465Z,75.31
2018-07-03T00:11:48.459Z,75.02
2018-07-03T00:12:48.433Z,74.36
2018-07-03T00:13:48.417Z,74.36
2018-07-03T00:14:48.399Z,75.41
2018-07-03T00:15:48.383Z,74.84
2018-07-03T00:16:48.398Z,74.65
2018-07-03T00:17:48.351Z,74.84
2018-07-03T00:18:48.333Z,74.07
2018-07-03T00:19:48.317Z,73.59
2018-07-03T00:20:48.303Z,73.40
2018-07-03T00:21:48.286Z,73.50
2018-07-03T00:22:48.276Z,74.74
2018-07-03T00:23:48.252Z,75.31
2018-07-03T00:24:48.234Z,75.60
2018-07-03T00:25:48.221Z,75.89
2018-07-03T00:26:48.216Z,77.04
2018-07-03T00:27:48.185Z,77.23
2018-07-03T00:28:48.168Z,77.28
2018-07-03T00:29:48.153Z,78.24
2018-07-03T00:30:48.135Z,79.29
2018-07-03T00:31:48.118Z,80.44
2018-07-03T00:32:48.111Z,80.73
2018-07-03T00:33:48.087Z,79.39
2018-07-03T00:34:48.071Z,78.81
2018-07-03T00:35:48.056Z,78.14
2018-07-03T00:36:48.036Z,77.86
2018-07-03T00:37:48.033Z,79.00
2018-07-03T00:38:48.004Z,78.43
2018-07-03T00:39:47.986Z,78.34
2018-07-03T00:40:47.970Z,78.24
2018-07-03T00:41:47.953Z,77.86
2018-07-03T00:42:47.948Z,77.86
2018-07-03T00:43:47.919Z,77.67
2018-07-03T00:44:47.906Z,78.34
2018-07-03T00:45:47.887Z,78.63
2018-07-03T00:46:47.871Z,79.96
2018-07-03T00:47:47.864Z,79.58
2018-07-03T00:48:47.836Z,79.87
2018-07-03T00:49:47.820Z,78.91
2018-07-03T00:50:47.802Z,78.43
2018-07-03T00:51:47.786Z,79.10
2018-07-03T00:52:47.781Z,79.68
2018-07-03T00:53:47.763Z,80.63
2018-07-03T00:54:47.739Z,81.21
2018-07-03T00:55:47.721Z,82.07
2018-07-03T00:56:47.702Z,82.64
2018-07-03T00:57:47.696Z,82.64
2018-07-03T00:58:47.668Z,83.12
2018-07-03T00:59:47.651Z,83.40
2018-07-03T01:00:47.636Z,82.64
2018-07-03T01:01:47.618Z,83.08
2018-07-03T01:02:47.611Z,82.79
2018-07-03T01:03:47.584Z,82.22
2018-07-03T01:04:47.569Z,82.41
2018-07-03T01:05:47.551Z,82.41
2018-07-03T01:06:47.533Z,82.22
2018-07-03T01:07:47.525Z,82.17
2018-07-03T01:08:47.500Z,82.03
2018-07-03T01:09:47.482Z,82.51
2018-07-03T01:10:47.465Z,82.31
2018-07-03T01:11:47.448Z,82.31
2018-07-03T01:12:47.440Z,82.31
2018-07-03T01:13:47.417Z,84.42
2018-07-03T01:14:47.395Z,84.13
2018-07-03T01:15:47.381Z,84.99
2018-07-03T01:16:47.364Z,85.18
2018-07-03T01:17:47.357Z,85.75
2018-07-03T01:18:47.330Z,86.90
2018-07-03T01:19:47.315Z,87.00
2018-07-03T01:20:47.296Z,85.28
2018-07-03T01:21:47.281Z,86.33
2018-07-03T01:22:47.275Z,86.71
2018-07-03T01:23:47.247Z,85.94
2018-07-03T01:24:47.228Z,85.38
2018-07-03T01:25:47.210Z,85.33
2018-07-03T01:26:47.196Z,85.14
2018-07-03T01:27:47.175Z,84.52
2018-07-03T01:28:47.168Z,84.61
2018-07-03T01:29:47.142Z,85.38
2018-07-03T01:30:47.125Z,86.33
2018-07-03T01:31:47.109Z,87.86
2018-07-03T01:32:47.090Z,88.05
2018-07-03T01:33:47.083Z,88.48
2018-07-03T01:34:47.055Z,90.49
2018-07-03T01:35:47.039Z,90.20
2018-07-03T01:36:47.022Z,89.63
2018-07-03T01:37:47.004Z,89.06
2018-07-03T01:38:46.996Z,88.01
2018-07-03T01:39:46.970Z,88.01
2018-07-03T01:40:46.953Z,88.10
2018-07-03T01:41:46.934Z,87.24
2018-07-03T01:42:46.918Z,88.01
2018-07-03T01:43:46.916Z,87.15
2018-07-03T01:44:46.883Z,87.62
2018-07-03T01:45:46.867Z,86.96
2018-07-03T01:46:46.850Z,87.72
2018-07-03T01:47:46.833Z,87.72
2018-07-03T01:48:46.814Z,88.92
2018-07-03T01:49:46.807Z,88.82
2018-07-03T01:50:46.779Z,89.15
2018-07-03T01:51:46.762Z,89.78
2018-07-03T01:52:46.745Z,90.35
2018-07-03T01:53:46.729Z,91.02
2018-07-03T01:54:46.719Z,92.07
2018-07-03T01:55:46.692Z,91.02
2018-07-03T01:56:46.676Z,90.25
2018-07-03T01:57:46.659Z,88.82
2018-07-03T01:58:46.642Z,88.10
2018-07-03T01:59:46.637Z,87.96
2018-07-03T02:00:46.607Z,88.73
2018-07-03T02:01:46.590Z,91.02
2018-07-03T02:02:46.573Z,91.40
2018-07-03T02:03:46.554Z,90.83
2018-07-03T02:04:46.537Z,91.69
2018-07-03T02:05:46.529Z,92.07
2018-07-03T02:06:46.501Z,91.02
2018-07-03T02:07:46.484Z,91.30
2018-07-03T02:08:46.467Z,90.54
2018-07-03T02:09:46.450Z,90.45
2018-07-03T02:10:46.440Z,91.11
2018-07-03T02:11:46.414Z,91.40
2018-07-03T02:12:46.395Z,91.97
2018-07-03T02:13:46.383Z,92.07
2018-07-03T02:14:46.361Z,92.74
2018-07-03T02:15:46.351Z,92.83
2018-07-03T02:16:46.330Z,93.02
2018-07-03T02:17:46.308Z,93.70
2018-07-03T02:18:46.289Z,92.36
2018-07-03T02:19:46.273Z,92.93
2018-07-03T02:20:46.275Z,92.26
2018-07-03T02:21:46.243Z,92.36
2018-07-03T02:22:46.225Z,91.88
2018-07-03T02:23:46.205Z,91.78
2018-07-03T02:24:46.185Z,92.26
2018-07-03T02:25:46.171Z,92.83
2018-07-03T02:26:46.158Z,93.26
2018-07-03T02:27:46.132Z,94.31
2018-07-03T02:28:46.118Z,94.89
2018-07-03T02:29:46.097Z,95.46
2018-07-03T02:30:46.077Z,94.89
2018-07-03T02:31:46.071Z,95.27
2018-07-03T02:32:46.044Z,95.08
2018-07-03T02:33:46.026Z,95.94
2018-07-03T02:34:46.008Z,95.27
2018-07-03T02:35:45.993Z,95.08
2018-07-03T02:36:45.981Z,95.17
2018-07-03T02:37:45.955Z,95.08
2018-07-03T02:38:45.937Z,95.17
2018-07-03T02:39:45.919Z,95.36
2018-07-03T02:40:45.903Z,94.89
2018-07-03T02:41:45.893Z,94.41
2018-07-03T02:42:45.866Z,94.60
2018-07-03T02:43:45.848Z,94.79
2018-07-03T02:44:45.829Z,94.12
2018-07-03T02:45:45.813Z,95.17
2018-07-03T02:46:45.802Z,95.65
2018-07-03T02:47:45.777Z,96.22
2018-07-03T02:48:45.758Z,95.84
2018-07-03T02:49:45.741Z,96.22
2018-07-03T02:50:45.722Z,96.70
2018-07-03T02:51:45.721Z,97.56
2018-07-03T02:52:45.686Z,98.42
2018-07-03T02:53:45.670Z,98.71
2018-07-03T02:54:45.651Z,99.42
2018-07-03T02:55:45.634Z,99.90
2018-07-03T02:56:45.625Z,99.99
2018-07-03T02:57:45.598Z,99.99
2018-07-03T02:58:45.579Z,99.71
2018-07-03T02:59:45.561Z,99.61
2018-07-03T03:00:45.553Z,98.27
2018-07-03T03:01:45.539Z,97.89
2018-07-03T03:02:45.507Z,97.99
2018-07-03T03:03:45.500Z,97.89
2018-07-03T03:04:45.471Z,97.18
2018-07-03T03:05:45.454Z,96.89
2018-07-03T03:06:45.444Z,97.18
2018-07-03T03:07:45.418Z,95.94
2018-07-03T03:08:45.409Z,95.84
2018-07-03T03:09:45.382Z,95.08
2018-07-03T03:10:45.363Z,94.89
2018-07-03T03:11:45.361Z,94.60
2018-07-03T03:12:45.329Z,94.41
2018-07-03T03:13:45.310Z,94.70
2018-07-03T03:14:45.291Z,94.70
2018-07-03T03:15:45.282Z,94.41
2018-07-03T03:16:45.259Z,94.70
2018-07-03T03:17:45.246Z,96.80
2018-07-03T03:18:45.224Z,98.42
2018-07-03T03:19:45.201Z,99.99
2018-07-03T03:20:45.183Z,99.99
2018-07-03T03:21:45.168Z,99.99
2018-07-03T03:22:45.155Z,99.99
2018-07-03T03:23:45.128Z,99.99
2018-07-03T03:24:45.111Z,99.99
2018-07-03T03:25:45.093Z,99.99
2018-07-03T03:26:45.074Z,99.99
2018-07-03T03:27:45.073Z,99.99
2018-07-03T03:28:45.038Z,99.99
2018-07-03T03:29:45.020Z,99.99
2018-07-03T03:30:45.003Z,99.99
2018-07-03T03:31:44.984Z,99.99
2018-07-03T03:32:44.968Z,99.99
2018-07-03T03:33:44.958Z,99.99
2018-07-03T03:34:44.928Z,99.99
2018-07-03T03:35:44.911Z,99.99
2018-07-03T03:36:44.891Z,99.99
2018-07-03T03:37:44.874Z,99.99
2018-07-03T03:38:44.866Z,99.99
2018-07-03T03:39:44.837Z,99.99
2018-07-03T03:40:44.820Z,99.99
2018-07-03T03:41:44.802Z,99.99
2018-07-03T03:42:44.783Z,99.99
2018-07-03T03:43:44.774Z,99.99
2018-07-03T03:44:44.747Z,99.99
2018-07-03T03:45:44.732Z,99.99
2018-07-03T03:46:44.708Z,99.99
2018-07-03T03:47:44.691Z,99.99
2018-07-03T03:48:44.688Z,99.99
2018-07-03T03:49:44.657Z,99.99
2018-07-03T03:50:44.637Z,99.99
2018-07-03T03:51:44.621Z,99.99
2018-07-03T03:52:44.601Z,99.99
2018-07-03T03:53:44.619Z,99.99
2018-07-03T03:54:44.573Z,99.99
2018-07-03T03:55:44.547Z,99.99
2018-07-03T03:56:44.527Z,99.99
2018-07-03T03:57:44.510Z,99.99
2018-07-03T03:58:44.491Z,99.99
2018-07-03T03:59:44.485Z,99.99
2018-07-03T04:00:44.454Z,99.99
2018-07-03T04:01:44.437Z,99.99
2018-07-03T04:02:44.418Z,99.99
2018-07-03T04:03:44.404Z,99.99
2018-07-03T04:04:44.384Z,99.99
2018-07-03T04:05:44.373Z,99.99
2018-07-03T04:06:44.344Z,99.99
2018-07-03T04:07:44.329Z,99.99
2018-07-03T04:08:44.309Z,99.99
2018-07-03T04:09:44.291Z,99.99
2018-07-03T04:10:44.283Z,99.99
2018-07-03T04:11:44.254Z,99.99
2018-07-03T04:12:44.237Z,99.99
2018-07-03T04:13:44.227Z,99.99
2018-07-03T04:14:44.199Z,99.99
2018-07-03T04:15:44.192Z,99.99
2018-07-03T04:16:44.163Z,99.99
2018-07-03T04:17:44.145Z,99.99
2018-07-03T04:18:44.134Z,99.99
2018-07-03T04:19:44.111Z,99.99
2018-07-03T04:20:44.106Z,99.99
2018-07-03T04:21:44.074Z,99.99
2018-07-03T04:22:44.055Z,99.99
2018-07-03T04:23:44.035Z,99.99
2018-07-03T04:24:44.019Z,99.99
2018-07-03T04:25:44.000Z,99.99
2018-07-03T04:26:43.993Z,99.99
2018-07-03T04:27:43.962Z,99.99
2018-07-03T04:28:43.946Z,99.99
2018-07-03T04:29:43.989Z,99.99
2018-07-03T04:30:43.908Z,99.99
2018-07-03T04:31:43.900Z,99.99
2018-07-03T04:32:43.874Z,99.99
2018-07-03T04:33:43.856Z,99.99
2018-07-03T04:34:43.835Z,99.80
2018-07-03T04:35:43.834Z,99.04
2018-07-03T04:36:43.810Z,97.99
2018-07-03T04:37:43.781Z,99.33
2018-07-03T04:38:43.764Z,98.47
2018-07-03T04:39:43.747Z,97.61
2018-07-03T04:40:43.732Z,98.04
2018-07-03T04:41:43.720Z,98.04
2018-07-03T04:42:43.692Z,98.33
2018-07-03T04:43:43.675Z,97.37
2018-07-03T04:44:43.655Z,97.37
2018-07-03T04:45:43.642Z,97.94
2018-07-03T04:46:43.629Z,97.18
2018-07-03T04:47:43.602Z,96.51
2018-07-03T04:48:43.584Z,95.56
2018-07-03T04:49:43.566Z,96.42
2018-07-03T04:50:43.549Z,98.04
2018-07-03T04:51:43.541Z,98.71
2018-07-03T04:52:43.512Z,99.99
2018-07-03T04:53:43.495Z,99.99
2018-07-03T04:54:43.477Z,99.99
2018-07-03T04:55:43.457Z,99.99
2018-07-03T04:56:43.452Z,99.99
2018-07-03T04:57:43.422Z,99.99
2018-07-03T04:58:43.403Z,99.99
2018-07-03T04:59:43.387Z,99.99
2018-07-03T05:00:43.370Z,98.90
2018-07-03T05:01:43.362Z,99.09
2018-07-03T05:02:43.339Z,99.99
2018-07-03T05:03:43.314Z,99.66
2018-07-03T05:04:43.297Z,99.66
2018-07-03T05:05:43.283Z,99.57
2018-07-03T05:06:43.272Z,98.80
2018-07-03T05:07:43.244Z,98.04
2018-07-03T05:08:43.226Z,97.28
2018-07-03T05:09:43.208Z,96.32
2018-07-03T05:10:43.192Z,95.27
2018-07-03T05:11:43.182Z,97.85
2018-07-03T05:12:43.156Z,97.94
2018-07-03T05:13:43.143Z,92.54
2018-07-03T05:14:43.120Z,92.54
2018-07-03T05:15:43.103Z,91.49
2018-07-03T05:16:43.105Z,89.53
2018-07-03T05:17:43.067Z,87.81
2018-07-03T05:18:43.049Z,88.48
2018-07-03T05:19:43.031Z,88.09
2018-07-03T05:20:43.014Z,89.24
2018-07-03T05:21:42.998Z,87.33
2018-07-03T05:22:42.988Z,88.09
2018-07-03T05:23:42.961Z,88.09
2018-07-03T05:24:42.997Z,89.62
2018-07-03T05:25:42.927Z,87.62
2018-07-03T05:26:42.940Z,87.43
2018-07-03T05:27:42.891Z,85.41
2018-07-03T05:28:42.874Z,83.93
2018-07-03T05:29:42.858Z,84.59
2018-07-03T05:30:42.837Z,82.01
2018-07-03T05:31:42.875Z,81.44
2018-07-03T05:32:42.815Z,79.18
2018-07-03T05:33:42.789Z,80.24
2018-07-03T05:34:42.773Z,80.14
2018-07-03T05:35:42.753Z,79.37
2018-07-03T05:36:42.735Z,80.81
2018-07-03T05:37:42.740Z,77.65
2018-07-03T05:38:42.703Z,76.31
2018-07-03T05:39:42.685Z,74.43
2018-07-03T05:40:42.666Z,72.94
2018-07-03T05:41:42.650Z,71.69
2018-07-03T05:42:42.666Z,70.86
2018-07-03T05:43:42.617Z,70.76
2018-07-03T05:44:42.599Z,70.76
2018-07-03T05:45:42.584Z,69.42
2018-07-03T05:46:42.565Z,69.62
2018-07-03T05:47:42.546Z,68.21
2018-07-03T05:48:42.540Z,66.52
2018-07-03T05:49:42.514Z,64.12
2018-07-03T05:50:42.494Z,63.09
2018-07-03T05:51:42.479Z,62.07
2018-07-03T05:52:42.463Z,61.33
2018-07-03T05:53:42.455Z,59.69
2018-07-03T05:54:42.431Z,59.41
2018-07-03T05:55:42.415Z,58.37
2018-07-03T05:56:42.398Z,58.37
2018-07-03T05:57:42.382Z,57.83
2018-07-03T05:58:42.375Z,55.71
2018-07-03T05:59:42.352Z,55.43
2018-07-03T06:00:42.335Z,55.07
2018-07-03T06:01:42.319Z,54.58
2018-07-03T06:02:42.506Z,54.10
2018-07-03T06:03:42.318Z,54.13
2018-07-03T06:04:42.274Z,52.49
2018-07-03T06:05:42.258Z,52.59
2018-07-03T06:06:42.242Z,52.81
2018-07-03T06:07:42.227Z,52.04
2018-07-03T06:08:42.218Z,51.20
2018-07-03T06:09:42.208Z,51.46
2018-07-03T06:10:42.187Z,51.20
2018-07-03T06:11:42.169Z,48.79
2018-07-03T06:12:42.148Z,48.30
2018-07-03T06:13:42.153Z,48.03
2018-07-03T06:14:42.133Z,47.85
2018-07-03T06:15:42.110Z,48.23
2018-07-03T06:16:42.095Z,47.94
2018-07-03T06:17:42.082Z,47.94
2018-07-03T06:18:42.066Z,47.92
2018-07-03T06:19:42.062Z,48.11
2018-07-03T06:20:42.047Z,48.21
2018-07-03T06:21:42.025Z,48.33
2018-07-03T06:22:42.071Z,47.94
2018-07-03T06:23:41.998Z,47.65
2018-07-03T06:24:41.982Z,47.29
2018-07-03T06:25:41.977Z,47.02
2018-07-03T06:26:41.953Z,46.34
2018-07-03T06:27:41.941Z,47.45
2018-07-03T06:28:41.932Z,47.53
2018-07-03T06:29:41.913Z,48.30
2018-07-03T06:30:41.908Z,48.71
2018-07-03T06:31:41.885Z,47.45
2018-07-03T06:32:41.872Z,46.30
2018-07-03T06:33:41.860Z,46.90
2018-07-03T06:34:41.844Z,46.03
2018-07-03T06:35:41.844Z,45.17
2018-07-03T06:36:41.818Z,46.90
2018-07-03T06:37:41.868Z,45.76
2018-07-03T06:38:41.791Z,44.80
2018-07-03T06:39:41.777Z,44.70
2018-07-03T06:40:41.766Z,44.92
2018-07-03T06:41:41.765Z,44.07
2018-07-03T06:42:41.738Z,44.36
2018-07-03T06:43:41.725Z,43.40
2018-07-03T06:44:41.747Z,42.55
2018-07-03T06:45:41.698Z,43.23
2018-07-03T06:46:41.693Z,43.82
2018-07-03T06:47:41.672Z,41.91
2018-07-03T06:48:41.663Z,41.02
2018-07-03T06:49:41.646Z,41.79
2018-07-03T06:50:41.633Z,41.77
2018-07-03T06:51:41.657Z,41.89
2018-07-03T06:52:41.610Z,42.00
2018-07-03T06:53:41.596Z,41.11
2018-07-03T06:54:41.600Z,41.00
2018-07-03T06:55:41.567Z,40.90
2018-07-03T06:56:41.555Z,41.87
2018-07-03T06:57:41.554Z,41.70
2018-07-03T06:58:41.530Z,41.14
2018-07-03T06:59:41.517Z,40.38
2018-07-03T07:00:41.508Z,39.51
2018-07-03T07:01:41.491Z,39.41
2018-07-03T07:02:41.487Z,40.09
2018-07-03T07:03:41.467Z,40.26
2018-07-03T07:04:41.457Z,40.75
2018-07-03T07:05:41.441Z,39.90
2018-07-03T07:06:41.426Z,40.69
2018-07-03T07:07:41.425Z,39.24
2018-07-03T07:08:41.485Z,39.34
2018-07-03T07:09:41.436Z,40.33
2018-07-03T07:10:41.385Z,40.13
2018-07-03T07:11:41.368Z,39.62
2018-07-03T07:12:41.362Z,39.55
2018-07-03T07:13:41.343Z,39.37
2018-07-03T07:14:41.327Z,38.79
2018-07-03T07:15:41.316Z,38.23
2018-07-03T07:16:41.306Z,39.36
2018-07-03T07:17:41.305Z,38.02
2018-07-03T07:18:41.278Z,37.74
2018-07-03T07:19:41.268Z,37.07
2018-07-03T07:20:41.256Z,37.74
2018-07-03T07:21:41.243Z,37.41
2018-07-03T07:22:41.240Z,37.81
2018-07-03T07:23:41.218Z,37.74
2018-07-03T07:24:41.206Z,36.99
2018-07-03T07:25:41.193Z,36.69
2018-07-03T07:26:41.181Z,36.04
2018-07-03T07:27:41.179Z,35.72
2018-07-03T07:28:41.158Z,36.89
2018-07-03T07:29:41.145Z,36.22
2018-07-03T07:30:41.132Z,36.63
2018-07-03T07:31:41.120Z,35.16
2018-07-03T07:32:41.119Z,36.79
2018-07-03T07:33:41.097Z,36.30
2018-07-03T07:34:41.084Z,36.60
2018-07-03T07:35:41.072Z,35.90
2018-07-03T07:36:41.061Z,37.90
2018-07-03T07:37:41.059Z,39.20
2018-07-03T07:38:41.038Z,42.57
2018-07-03T07:39:41.025Z,42.43
2018-07-03T07:40:41.014Z,43.66
2018-07-03T07:41:41.008Z,44.22
2018-07-03T07:42:41.045Z,44.20
2018-07-03T07:43:40.980Z,47.00
2018-07-03T07:44:40.967Z,46.61
2018-07-03T07:45:40.957Z,47.09
2018-07-03T07:46:40.946Z,49.15
2018-07-03T07:47:40.931Z,46.54
2018-07-03T07:48:40.931Z,46.64
2018-07-03T07:49:40.908Z,46.34
2018-07-03T07:50:40.896Z,48.37
2018-07-03T07:51:40.884Z,48.18
2018-07-03T07:52:40.883Z,49.82
2018-07-03T07:53:40.860Z,47.89
2018-07-03T07:54:40.848Z,47.02
2018-07-03T07:55:40.837Z,46.15
2018-07-03T07:56:40.824Z,46.83
2018-07-03T07:57:40.836Z,47.50
2018-07-03T07:58:40.801Z,47.41
2018-07-03T07:59:40.789Z,45.57
2018-07-03T08:00:40.775Z,46.92
2018-07-03T08:01:40.765Z,47.70
2018-07-03T08:02:40.755Z,45.76
2018-07-03T08:03:40.753Z,47.31
2018-07-03T08:04:40.732Z,46.15
2018-07-03T08:05:40.717Z,46.64
2018-07-03T08:06:40.756Z,46.15
2018-07-03T08:07:40.692Z,46.64
2018-07-03T08:08:40.691Z,47.02
2018-07-03T08:09:40.668Z,46.92
2018-07-03T08:10:40.657Z,47.99
2018-07-03T08:11:40.645Z,47.99
2018-07-03T08:12:40.633Z,47.02
2018-07-03T08:13:40.632Z,47.80
2018-07-03T08:14:40.610Z,47.33
2018-07-03T08:15:40.597Z,48.21
2018-07-03T08:16:40.585Z,47.14
2018-07-03T08:17:40.571Z,45.98
2018-07-03T08:18:40.591Z,46.56
2018-07-03T08:19:40.550Z,47.05
2018-07-03T08:20:40.536Z,47.05
2018-07-03T08:21:40.526Z,46.75
2018-07-03T08:22:40.514Z,45.21
2018-07-03T08:23:40.500Z,45.69
2018-07-03T08:24:40.503Z,46.58
2018-07-03T08:25:40.480Z,46.85
2018-07-03T08:26:40.523Z,47.33
2018-07-03T08:27:40.453Z,46.75
2018-07-03T08:28:40.441Z,45.14
2018-07-03T08:29:40.462Z,46.58
2018-07-03T08:30:40.417Z,45.72
2018-07-03T08:31:40.408Z,45.42
2018-07-03T08:32:40.392Z,47.16
2018-07-03T08:33:40.380Z,45.52
2018-07-03T08:34:40.368Z,44.84
2018-07-03T08:35:40.369Z,45.74
2018-07-03T08:36:40.345Z,43.98
2018-07-03T08:37:40.333Z,43.88
2018-07-03T08:38:40.320Z,44.07
2018-07-03T08:39:40.309Z,44.56
2018-07-03T08:40:40.310Z,45.72
2018-07-03T08:41:40.286Z,45.74
2018-07-03T08:42:40.273Z,44.87
2018-07-03T08:43:40.261Z,44.29
2018-07-03T08:44:40.249Z,44.50
2018-07-03T08:45:40.252Z,44.31
2018-07-03T08:46:40.229Z,44.89
2018-07-03T08:47:40.213Z,44.12
2018-07-03T08:48:40.202Z,42.37
2018-07-03T08:49:40.190Z,41.79
2018-07-03T08:50:40.180Z,41.70
2018-07-03T08:51:40.252Z,40.36
2018-07-03T08:52:40.156Z,41.72
2018-07-03T08:53:40.144Z,39.39
2018-07-03T08:54:40.131Z,39.29
2018-07-03T08:55:40.118Z,40.26
2018-07-03T08:56:40.119Z,40.65
2018-07-03T08:57:40.095Z,40.75
2018-07-03T08:58:40.085Z,39.20
2018-07-03T08:59:40.080Z,38.15
2018-07-03T09:00:40.061Z,37.67
2018-07-03T09:01:40.062Z,37.87
2018-07-03T09:02:40.039Z,37.77
2018-07-03T09:03:40.035Z,38.45
2018-07-03T09:04:40.017Z,37.96
2018-07-03T09:05:40.004Z,37.49
2018-07-03T09:06:40.006Z,37.30
2018-07-03T09:07:39.985Z,37.21
2018-07-03T09:08:39.969Z,37.01
2018-07-03T09:09:39.962Z,36.91
2018-07-03T09:10:39.945Z,36.43
2018-07-03T09:11:39.947Z,35.66
2018-07-03T09:12:39.924Z,34.70
2018-07-03T09:13:39.915Z,36.74
2018-07-03T09:14:39.901Z,35.66
2018-07-03T09:15:39.893Z,34.69
2018-07-03T09:16:39.892Z,34.20
2018-07-03T09:17:39.866Z,34.12
2018-07-03T09:18:39.854Z,34.80
2018-07-03T09:19:39.843Z,34.99
2018-07-03T09:20:39.832Z,34.70
2018-07-03T09:21:39.821Z,34.91
2018-07-03T09:22:39.820Z,34.41
2018-07-03T09:23:39.829Z,33.92
2018-07-03T09:24:39.787Z,34.31
2018-07-03T09:25:39.777Z,34.14
2018-07-03T09:26:39.767Z,33.26
2018-07-03T09:27:39.764Z,36.08
2018-07-03T09:28:39.743Z,35.01
2018-07-03T09:29:39.731Z,34.43
2018-07-03T09:30:39.725Z,34.22
2018-07-03T09:31:39.712Z,34.80
2018-07-03T09:32:39.711Z,34.81
2018-07-03T09:33:39.687Z,34.04
2018-07-03T09:34:39.677Z,34.62
2018-07-03T09:35:39.665Z,34.81
2018-07-03T09:36:39.653Z,36.19
2018-07-03T09:37:39.648Z,35.78
2018-07-03T09:38:39.642Z,34.23
2018-07-03T09:39:39.624Z,33.94
2018-07-03T09:40:39.612Z,33.86
2018-07-03T09:41:39.600Z,33.38
2018-07-03T09:42:39.588Z,33.38
2018-07-03T09:43:39.591Z,33.38
2018-07-03T09:44:39.567Z,32.21
2018-07-03T09:45:39.559Z,34.06
2018-07-03T09:46:39.545Z,34.35
2018-07-03T09:47:39.535Z,32.89
2018-07-03T09:48:39.533Z,32.21
2018-07-03T09:49:39.513Z,33.38
2018-07-03T09:50:39.503Z,33.47
2018-07-03T09:51:39.491Z,32.79
2018-07-03T09:52:39.482Z,34.06
2018-07-03T09:53:39.482Z,33.88
2018-07-03T09:54:39.479Z,34.36
2018-07-03T09:55:39.449Z,33.39
2018-07-03T09:56:39.440Z,32.04
2018-07-03T09:57:39.480Z,32.23
2018-07-03T09:58:39.425Z,34.66
2018-07-03T09:59:39.407Z,31.65
2018-07-03T10:00:39.397Z,31.45
2018-07-03T10:01:39.394Z,31.95
2018-07-03T10:02:39.374Z,33.31
2018-07-03T10:03:39.384Z,33.41
2018-07-03T10:04:39.353Z,31.27
2018-07-03T10:05:39.347Z,31.27
2018-07-03T10:06:39.333Z,33.22
2018-07-03T10:07:39.325Z,30.21
2018-07-03T10:08:39.317Z,30.40
2018-07-03T10:09:39.314Z,29.52
2018-07-03T10:10:39.290Z,30.30
2018-07-03T10:11:39.282Z,30.01
2018-07-03T10:12:39.272Z,29.51
2018-07-03T10:13:39.263Z,30.48
2018-07-03T10:14:39.259Z,29.91
2018-07-03T10:15:39.241Z,31.37
2018-07-03T10:16:39.231Z,29.52
2018-07-03T10:17:39.221Z,29.72
2018-07-03T10:18:39.209Z,31.76
2018-07-03T10:19:39.210Z,31.85
2018-07-03T10:20:39.190Z,31.08
2018-07-03T10:21:39.180Z,30.11
2018-07-03T10:22:39.168Z,30.21
2018-07-03T10:23:39.160Z,29.91
2018-07-03T10:24:39.165Z,29.72
2018-07-03T10:25:39.139Z,29.43
2018-07-03T10:26:39.128Z,30.01
2018-07-03T10:27:39.118Z,29.91
2018-07-03T10:28:39.111Z,30.01
2018-07-03T10:29:39.099Z,30.21
2018-07-03T10:30:39.099Z,31.00
2018-07-03T10:31:39.076Z,30.79
2018-07-03T10:32:39.069Z,29.43
2018-07-03T10:33:39.059Z,29.82
2018-07-03T10:34:39.048Z,29.33
2018-07-03T10:35:39.052Z,30.11
2018-07-03T10:36:39.029Z,30.40
2018-07-03T10:37:39.018Z,29.91
2018-07-03T10:38:39.007Z,30.59
2018-07-03T10:39:39.000Z,29.74
2018-07-03T10:40:38.988Z,29.25
2018-07-03T10:41:38.986Z,30.02
2018-07-03T10:42:38.967Z,30.32
2018-07-03T10:43:38.957Z,30.22
2018-07-03T10:44:38.947Z,29.35
2018-07-03T10:45:38.938Z,32.18
2018-07-03T10:46:38.941Z,29.35
2018-07-03T10:47:38.918Z,29.35
2018-07-03T10:48:38.909Z,29.44
2018-07-03T10:49:38.899Z,29.65
2018-07-03T10:50:38.889Z,30.43
2018-07-03T10:51:38.915Z,29.85
2018-07-03T10:52:38.870Z,29.86
2018-07-03T10:53:38.861Z,29.96
2018-07-03T10:54:38.851Z,30.44
2018-07-03T10:55:38.841Z,29.47
2018-07-03T10:56:38.831Z,28.30
2018-07-03T10:57:38.836Z,28.69
2018-07-03T10:58:38.811Z,28.69
2018-07-03T10:59:38.821Z,28.51
2018-07-03T11:00:38.796Z,28.22
2018-07-03T11:01:38.786Z,28.23
2018-07-03T11:02:38.784Z,27.37
2018-07-03T11:03:38.763Z,29.54
2018-07-03T11:04:38.754Z,27.40
2018-07-03T11:05:38.795Z,27.02
2018-07-03T11:06:38.737Z,27.42
2018-07-03T11:07:38.735Z,25.59
2018-07-03T11:08:38.719Z,24.61
2018-07-03T11:09:38.708Z,24.60
2018-07-03T11:10:38.697Z,24.40
2018-07-03T11:11:38.687Z,26.04
2018-07-03T11:12:38.695Z,25.57
2018-07-03T11:13:38.669Z,25.75
2018-07-03T11:14:38.659Z,25.75
2018-07-03T11:15:38.650Z,25.98
2018-07-03T11:16:38.676Z,26.37
2018-07-03T11:17:38.634Z,25.39
2018-07-03T11:18:38.631Z,25.96
2018-07-03T11:19:38.643Z,25.20
2018-07-03T11:20:38.606Z,24.13
2018-07-03T11:21:38.595Z,23.75
2018-07-03T11:22:38.584Z,23.93
2018-07-03T11:23:38.585Z,25.11
2018-07-03T11:24:38.567Z,25.81
2018-07-03T11:25:38.559Z,25.31
2018-07-03T11:26:38.601Z,24.42
2018-07-03T11:27:38.540Z,25.42
2018-07-03T11:28:38.545Z,24.52
2018-07-03T11:29:38.522Z,25.89
2018-07-03T11:30:38.512Z,25.90
2018-07-03T11:31:38.505Z,24.63
2018-07-03T11:32:38.497Z,26.18
2018-07-03T11:33:38.502Z,24.61
2018-07-03T11:34:38.475Z,25.13
2018-07-03T11:35:38.468Z,25.82
2018-07-03T11:36:38.459Z,24.52
2018-07-03T11:37:38.451Z,24.11
2018-07-03T11:38:38.472Z,24.02
2018-07-03T11:39:38.431Z,26.29
2018-07-03T11:40:38.423Z,24.22
2018-07-03T11:41:38.414Z,22.37
2018-07-03T11:42:38.408Z,24.13
2018-07-03T11:43:38.396Z,22.77
2018-07-03T11:44:38.399Z,22.50
2018-07-03T11:45:38.384Z,23.19
2018-07-03T11:46:38.385Z,22.62
2018-07-03T11:47:38.362Z,22.03
2018-07-03T11:48:38.352Z,22.02
2018-07-03T11:49:38.353Z,21.92
2018-07-03T11:50:38.334Z,25.56
2018-07-03T11:51:38.328Z,21.25
2018-07-03T11:52:38.316Z,21.83
2018-07-03T11:53:38.351Z,22.51
2018-07-03T11:54:38.308Z,22.60
2018-07-03T11:55:38.290Z,22.02
2018-07-03T11:56:38.284Z,22.63
2018-07-03T11:57:38.273Z,22.13
2018-07-03T11:58:38.264Z,23.33
2018-07-03T11:59:38.264Z,23.05
2018-07-03T12:00:38.248Z,21.84
2018-07-03T12:01:38.267Z,24.66
2018-07-03T12:02:38.239Z,22.52
2018-07-03T12:03:38.222Z,22.23
2018-07-03T12:04:38.243Z,21.56
2018-07-03T12:05:38.204Z,19.98
2018-07-03T12:06:38.195Z,21.56
2018-07-03T12:07:38.186Z,21.62
2018-07-03T12:08:38.176Z,23.48
2018-07-03T12:09:38.169Z,23.68
2018-07-03T12:10:38.170Z,23.77
2018-07-03T12:11:38.156Z,23.58
2018-07-03T12:12:38.143Z,23.38
2018-07-03T12:13:38.135Z,22.52
2018-07-03T12:14:38.139Z,22.73
2018-07-03T12:15:38.130Z,22.45
2018-07-03T12:16:38.115Z,23.02
2018-07-03T12:17:38.105Z,23.31
2018-07-03T12:18:38.093Z,22.62
2018-07-03T12:19:38.155Z,21.94
2018-07-03T12:20:38.090Z,21.64
2018-07-03T12:21:38.070Z,21.15
2018-07-03T12:22:38.058Z,21.27
2018-07-03T12:23:38.050Z,20.88
2018-07-03T12:24:38.042Z,22.03
2018-07-03T12:25:38.034Z,23.19
2018-07-03T12:26:38.035Z,23.27
2018-07-03T12:27:38.017Z,24.16
2018-07-03T12:28:38.008Z,23.98
2018-07-03T12:29:38.000Z,22.52
2018-07-03T12:30:37.991Z,22.94
2018-07-03T12:31:37.992Z,19.92
2018-07-03T12:32:37.976Z,20.59
2018-07-03T12:33:37.966Z,20.90
2018-07-03T12:34:37.956Z,20.41
2018-07-03T12:35:37.948Z,22.56
2018-07-03T12:36:37.987Z,21.01
2018-07-03T12:37:37.943Z,21.19
2018-07-03T12:38:37.926Z,20.98
2018-07-03T12:39:37.914Z,23.25
2018-07-03T12:40:37.907Z,21.58
2018-07-03T12:41:37.901Z,21.97
2018-07-03T12:42:37.900Z,20.01
2018-07-03T12:43:37.881Z,22.53
2018-07-03T12:44:37.874Z,21.17
2018-07-03T12:45:37.866Z,21.59
2018-07-03T12:46:37.859Z,22.08
2018-07-03T12:47:37.858Z,21.01
2018-07-03T12:48:37.840Z,20.10
2018-07-03T12:49:37.836Z,19.72
2018-07-03T12:50:37.823Z,20.04
2018-07-03T12:51:37.816Z,20.23
2018-07-03T12:52:37.821Z,20.92